createdAt,value
2018-07-22T00:05:21.889Z,16.23
2018-07-22T00:07:49.722Z,15.93
2018-07-22T00:10:27.643Z,16.00
2018-07-22T00:12:56.042Z,16.10
2018-07-22T00:15:23.930Z,16.60
2018-07-22T00:17:51.969Z,17.07
2018-07-22T00:20:20.403Z,16.87
2018-07-22T00:22:48.373Z,15.60
2018-07-22T00:25:16.809Z,16.53
2018-07-22T00:27:45.202Z,16.90
2018-07-22T00:30:13.120Z,16.50
2018-07-22T00:32:46.846Z,16.50
2018-07-22T00:35:14.720Z,16.83
2018-07-22T00:37:42.352Z,16.87
2018-07-22T00:43:05.173Z,18.37
2018-07-22T00:45:33.077Z,16.73
2018-07-22T00:48:00.918Z,17.47
2018-07-22T00:50:39.317Z,18.20
2018-07-22T00:53:07.500Z,18.07
2018-07-22T00:55:35.391Z,18.97
2018-07-22T00:58:03.601Z,18.63
2018-07-22T01:00:46.114Z,18.67
2018-07-22T01:03:13.989Z,16.87
2018-07-22T01:05:41.918Z,21.07
2018-07-22T01:08:09.644Z,19.23
2018-07-22T01:10:37.590Z,19.33
2018-07-22T01:13:06.504Z,18.77
2018-07-22T01:15:34.543Z,18.87
2018-07-22T01:18:02.275Z,19.10
2018-07-22T01:20:53.435Z,19.87
2018-07-22T01:23:21.379Z,19.07
2018-07-22T01:25:49.240Z,19.73
2018-07-22T01:28:16.964Z,19.80
2018-07-22T01:30:44.812Z,19.77
2018-07-22T01:33:12.665Z,18.80
2018-07-22T01:38:42.979Z,21.37
2018-07-22T01:41:10.973Z,21.63
2018-07-22T01:43:38.824Z,21.87
2018-07-22T01:46:07.037Z,21.90
2018-07-22T01:48:35.018Z,21.10
2018-07-22T01:51:02.825Z,21.67
2018-07-22T01:53:30.709Z,21.07
2018-07-22T01:55:58.688Z,22.50
2018-07-22T01:58:26.641Z,20.83
2018-07-22T02:00:55.190Z,21.37
2018-07-22T02:03:23.138Z,20.57
2018-07-22T02:05:51.068Z,20.83
2018-07-22T02:08:18.920Z,19.57
2018-07-22T02:10:47.586Z,18.40
2018-07-22T02:13:15.491Z,18.13
2018-07-22T02:15:43.477Z,18.57
2018-07-22T02:18:16.233Z,17.53
2018-07-22T02:20:44.072Z,18.17
2018-07-22T02:23:11.884Z,15.80
2018-07-22T02:25:39.770Z,16.40
2018-07-22T02:28:07.640Z,18.70
2018-07-22T02:30:35.451Z,18.40
2018-07-22T02:33:03.217Z,19.43
2018-07-22T02:35:30.894Z,18.43
2018-07-22T02:37:58.888Z,18.47
2018-07-22T02:40:26.644Z,16.50
2018-07-22T02:42:54.551Z,15.23
2018-07-22T02:45:22.393Z,14.77
2018-07-22T02:47:50.235Z,14.50
2018-07-22T02:50:18.128Z,15.70
2018-07-22T02:52:45.973Z,14.40
2018-07-22T02:55:18.333Z,13.17
2018-07-22T02:57:46.214Z,15.37
2018-07-22T03:00:13.997Z,15.47
2018-07-22T03:02:41.842Z,16.30
2018-07-22T03:05:09.731Z,14.87
2018-07-22T03:07:47.166Z,16.93
2018-07-22T03:10:14.899Z,15.57
2018-07-22T03:12:42.727Z,15.23
2018-07-22T03:15:10.426Z,16.57
2018-07-22T03:17:38.242Z,17.60
2018-07-22T03:20:06.181Z,17.33
2018-07-22T03:22:34.006Z,17.37
2018-07-22T03:25:01.856Z,17.63
2018-07-22T03:27:29.698Z,16.30
2018-07-22T03:29:57.470Z,17.83
2018-07-22T03:32:25.297Z,18.87
2018-07-22T03:34:53.175Z,17.77
2018-07-22T03:37:21.066Z,18.03
2018-07-22T03:39:49.161Z,18.30
2018-07-22T03:42:17.019Z,18.40
2018-07-22T03:44:45.255Z,17.30
2018-07-22T03:47:13.229Z,17.77
2018-07-22T03:49:41.056Z,17.53
2018-07-22T03:52:08.912Z,16.90
2018-07-22T03:54:37.045Z,17.77
2018-07-22T03:57:04.860Z,17.10
2018-07-22T03:59:32.606Z,19.03
2018-07-22T04:02:00.513Z,19.13
2018-07-22T04:04:28.369Z,18.77
2018-07-22T04:06:56.133Z,17.93
2018-07-22T04:09:23.914Z,17.30
2018-07-22T04:11:51.745Z,18.17
2018-07-22T04:14:19.933Z,17.60
2018-07-22T04:16:47.640Z,17.73
2018-07-22T04:19:15.431Z,17.40
2018-07-22T04:21:43.378Z,15.80
2018-07-22T04:24:11.232Z,17.77
2018-07-22T04:26:51.412Z,18.43
2018-07-22T04:29:19.256Z,18.93
2018-07-22T04:31:47.176Z,18.00
2018-07-22T04:34:15.038Z,18.83
2018-07-22T04:36:42.764Z,18.80
2018-07-22T04:39:10.719Z,18.07
2018-07-22T04:41:38.494Z,18.77
2018-07-22T04:44:06.339Z,19.73
2018-07-22T04:46:34.086Z,20.60
2018-07-22T04:49:01.867Z,17.87
2018-07-22T04:51:29.737Z,18.47
2018-07-22T04:53:57.603Z,18.80
2018-07-22T04:56:25.370Z,19.80
2018-07-22T04:58:53.321Z,20.33
2018-07-22T05:01:24.646Z,17.60
2018-07-22T05:03:52.584Z,18.07
2018-07-22T05:06:20.547Z,18.33
2018-07-22T05:08:48.493Z,19.27
2018-07-22T05:11:16.326Z,19.63
2018-07-22T05:13:44.147Z,19.60
2018-07-22T05:16:11.969Z,20.03
2018-07-22T05:18:39.804Z,19.97
2018-07-22T05:21:07.616Z,20.50
2018-07-22T05:23:35.352Z,18.20
2018-07-22T05:26:03.214Z,18.73
2018-07-22T05:28:30.964Z,19.37
2018-07-22T05:30:58.933Z,18.70
2018-07-22T05:33:26.746Z,19.03
2018-07-22T05:35:54.876Z,13.87
2018-07-22T05:38:22.923Z,14.80
2018-07-22T05:40:51.809Z,19.20
2018-07-22T05:43:19.889Z,20.40
2018-07-22T05:45:47.751Z,20.60
2018-07-22T05:48:15.553Z,20.63
2018-07-22T05:50:43.233Z,19.00
2018-07-22T05:53:11.074Z,18.67
2018-07-22T05:55:38.808Z,18.33
2018-07-22T05:58:06.647Z,18.93
2018-07-22T06:00:34.475Z,17.83
2018-07-22T06:03:03.119Z,13.03
2018-07-22T06:05:30.888Z,16.17
2018-07-22T06:07:58.530Z,16.03
2018-07-22T06:10:26.598Z,16.97
2018-07-22T06:12:54.446Z,17.77
2018-07-22T06:15:22.245Z,16.13
2018-07-22T06:17:49.996Z,13.87
2018-07-22T06:20:17.886Z,12.80
2018-07-22T06:22:45.647Z,15.87
2018-07-22T06:25:13.267Z,14.57
2018-07-22T06:27:41.231Z,12.27
2018-07-22T06:30:10.159Z,12.10
2018-07-22T06:32:37.991Z,15.23
2018-07-22T06:35:06.088Z,11.97
2018-07-22T06:37:33.987Z,13.27
2018-07-22T06:40:01.934Z,13.33
2018-07-22T06:42:29.520Z,13.87
2018-07-22T06:44:57.183Z,15.07
2018-07-22T06:47:25.105Z,13.53
2018-07-22T06:49:53.025Z,13.73
2018-07-22T06:52:20.876Z,14.80
2018-07-22T06:54:48.757Z,14.97
2018-07-22T06:57:16.622Z,15.03
2018-07-22T06:59:44.565Z,14.70
2018-07-22T07:02:12.532Z,15.00
2018-07-22T07:04:40.275Z,15.97
2018-07-22T07:07:08.295Z,15.50
2018-07-22T07:09:36.141Z,15.10
2018-07-22T07:12:03.988Z,17.17
2018-07-22T07:14:31.870Z,14.03
2018-07-22T07:16:59.776Z,15.33
2018-07-22T07:19:27.691Z,15.20
2018-07-22T07:21:55.611Z,16.23
2018-07-22T07:24:23.500Z,17.23
2018-07-22T07:26:51.450Z,18.13
2018-07-22T07:29:19.223Z,16.77
2018-07-22T07:31:47.114Z,11.77
2018-07-22T07:34:15.059Z,15.17
2018-07-22T07:36:42.954Z,14.77
2018-07-22T07:39:12.204Z,15.83
2018-07-22T07:41:40.221Z,10.83
2018-07-22T07:44:08.289Z,15.90
2018-07-22T07:46:36.203Z,14.10
2018-07-22T07:49:04.113Z,12.33
2018-07-22T07:51:32.074Z,12.57
2018-07-22T07:53:59.935Z,9.83
2018-07-22T07:56:28.086Z,12.23
2018-07-22T07:58:56.378Z,11.33
2018-07-22T08:01:24.330Z,16.10
2018-07-22T08:03:52.376Z,11.00
2018-07-22T08:06:20.330Z,11.40
2018-07-22T08:08:48.137Z,14.20
2018-07-22T08:11:16.123Z,10.97
2018-07-22T08:13:49.234Z,13.33
2018-07-22T08:16:17.289Z,13.97
2018-07-22T08:18:45.127Z,14.93
2018-07-22T08:21:13.049Z,12.10
2018-07-22T08:23:45.085Z,13.57
2018-07-22T08:26:13.115Z,12.97
2018-07-22T08:29:22.090Z,11.87
2018-07-22T08:31:50.198Z,12.60
2018-07-22T08:34:18.354Z,12.83
2018-07-22T08:36:46.813Z,13.07
2018-07-22T08:39:14.998Z,12.93
2018-07-22T08:41:42.890Z,13.53
2018-07-22T08:44:10.686Z,13.60
2018-07-22T08:46:39.874Z,12.97
2018-07-22T08:49:07.718Z,15.50
2018-07-22T08:51:36.376Z,11.97
2018-07-22T08:54:04.247Z,11.90
2018-07-22T08:56:32.729Z,14.10
2018-07-22T08:59:00.600Z,17.40
2018-07-22T09:01:29.239Z,15.43
2018-07-22T09:03:57.150Z,19.50
2018-07-22T09:06:25.657Z,12.57
2018-07-22T09:20:29.286Z,14.03
2018-07-22T09:22:57.228Z,17.00
2018-07-22T09:25:25.109Z,17.03
2018-07-22T09:27:53.084Z,16.33
2018-07-22T09:30:21.080Z,17.67
2018-07-22T09:32:48.928Z,17.30
2018-07-22T09:35:16.833Z,15.60
2018-07-22T09:37:44.905Z,16.30
2018-07-22T09:40:12.741Z,14.53
2018-07-22T09:42:40.698Z,15.17
2018-07-22T09:45:08.559Z,15.50
2018-07-22T09:47:50.243Z,16.67
2018-07-22T09:50:18.185Z,14.93
2018-07-22T09:52:46.209Z,14.90
2018-07-22T09:55:14.179Z,17.70
2018-07-22T09:57:47.129Z,16.30
2018-07-22T10:00:19.487Z,15.87
2018-07-22T10:02:47.401Z,15.23
2018-07-22T10:05:15.565Z,15.20
2018-07-22T10:07:43.418Z,15.30
2018-07-22T10:10:24.463Z,16.03
2018-07-22T10:12:52.617Z,14.50
2018-07-22T10:15:20.841Z,16.53
2018-07-22T10:17:49.242Z,16.63
2018-07-22T10:20:17.092Z,15.87
2018-07-22T10:22:49.003Z,16.27
2018-07-22T10:25:16.900Z,16.30
2018-07-22T10:27:50.974Z,15.33
2018-07-22T10:30:19.028Z,15.17
2018-07-22T10:32:47.025Z,15.67
2018-07-22T10:35:15.004Z,16.17
2018-07-22T10:37:42.920Z,17.23
2018-07-22T10:40:11.594Z,16.17
2018-07-22T10:42:39.471Z,15.60
2018-07-22T10:45:07.445Z,16.07
2018-07-22T10:47:35.440Z,15.47
2018-07-22T10:50:03.581Z,12.83
2018-07-22T10:52:31.517Z,13.30
2018-07-22T10:54:59.522Z,15.53
2018-07-22T10:57:27.590Z,16.73
2018-07-22T10:59:55.546Z,12.93
2018-07-22T11:02:23.632Z,14.17
2018-07-22T11:04:51.462Z,12.97
2018-07-22T11:07:19.520Z,15.87
2018-07-22T11:09:47.480Z,13.70
2018-07-22T11:12:15.501Z,14.27
2018-07-22T11:14:43.465Z,14.67
2018-07-22T11:17:11.426Z,12.97
2018-07-22T11:19:39.378Z,12.33
2018-07-22T11:22:07.488Z,12.93
2018-07-22T11:24:35.525Z,13.53
2018-07-22T11:27:03.989Z,14.30
2018-07-22T11:29:32.124Z,14.73
2018-07-22T11:32:00.131Z,13.10
2018-07-22T11:34:28.142Z,13.77
2018-07-22T11:36:56.057Z,10.20
2018-07-22T11:39:24.023Z,10.17
2018-07-22T11:41:52.219Z,10.07
2018-07-22T11:44:20.199Z,10.23
2018-07-22T11:46:48.081Z,10.67
2018-07-22T11:49:15.872Z,10.20
2018-07-22T11:51:43.758Z,10.20
2018-07-22T11:54:11.558Z,10.30
2018-07-22T11:56:39.401Z,10.10
2018-07-22T11:59:07.317Z,10.30
2018-07-22T12:01:38.344Z,9.30
2018-07-22T12:04:06.380Z,9.63
2018-07-22T12:06:34.109Z,10.20
2018-07-22T12:09:02.095Z,10.10
2018-07-22T12:11:30.355Z,9.40
2018-07-22T12:13:58.694Z,10.03
2018-07-22T12:16:26.694Z,8.83
2018-07-22T12:18:54.654Z,9.17
2018-07-22T12:21:22.780Z,8.80
2018-07-22T12:23:50.844Z,9.27
2018-07-22T12:26:18.906Z,9.27
2018-07-22T12:28:46.834Z,8.43
2018-07-22T12:31:15.017Z,9.17
2018-07-22T12:33:43.071Z,9.30
2018-07-22T12:36:11.009Z,9.60
2018-07-22T12:38:55.090Z,9.30
2018-07-22T12:41:22.996Z,9.40
2018-07-22T12:43:51.001Z,9.13
2018-07-22T12:46:18.893Z,9.30
2018-07-22T12:48:49.137Z,9.13
2018-07-22T12:51:16.901Z,10.63
2018-07-22T12:53:44.757Z,9.07
2018-07-22T12:56:12.816Z,9.50
2018-07-22T12:58:40.905Z,9.17
2018-07-22T13:01:08.771Z,8.57
2018-07-22T13:03:36.813Z,8.70
2018-07-22T13:06:04.764Z,9.00
2018-07-22T13:08:32.784Z,9.90
2018-07-22T13:11:02.086Z,9.07
2018-07-22T13:13:37.206Z,9.67
2018-07-22T13:16:05.419Z,8.80
2018-07-22T13:18:33.399Z,10.50
2018-07-22T13:21:01.356Z,10.37
2018-07-22T13:23:30.269Z,9.73
2018-07-22T13:26:00.169Z,9.77
2018-07-22T13:28:30.376Z,10.27
2018-07-22T13:30:59.462Z,10.30
2018-07-22T13:33:27.500Z,10.07
2018-07-22T13:35:55.517Z,10.13
2018-07-22T13:38:23.493Z,8.70
2018-07-22T13:40:51.392Z,11.67
2018-07-22T13:43:19.214Z,10.23
2018-07-22T13:45:47.256Z,9.57
2018-07-22T13:48:16.319Z,9.60
2018-07-22T13:50:44.536Z,9.63
2018-07-22T13:53:31.033Z,9.70
2018-07-22T13:55:59.375Z,9.97
2018-07-22T13:58:27.489Z,10.33
2018-07-22T14:00:55.521Z,9.53
2018-07-22T14:03:23.609Z,9.67
2018-07-22T14:05:51.621Z,10.30
2018-07-22T14:08:19.588Z,9.67
2018-07-22T14:10:53.508Z,9.90
2018-07-22T14:13:23.005Z,9.53
2018-07-22T14:15:53.039Z,9.30
2018-07-22T14:18:21.434Z,10.33
2018-07-22T14:20:51.705Z,9.67
2018-07-22T14:23:19.616Z,10.70
2018-07-22T14:25:47.452Z,9.90
2018-07-22T14:28:16.180Z,9.40
2018-07-22T14:30:44.291Z,8.67
2018-07-22T14:33:12.338Z,9.10
2018-07-22T14:35:52.252Z,10.03
2018-07-22T14:38:20.462Z,8.77
2018-07-22T14:40:48.973Z,9.63
2018-07-22T14:43:17.714Z,9.87
2018-07-22T14:45:45.934Z,9.30
2018-07-22T14:48:14.162Z,10.63
2018-07-22T14:50:42.100Z,9.37
2018-07-22T14:53:10.974Z,10.00
2018-07-22T14:55:41.463Z,10.00
2018-07-22T14:58:14.692Z,9.93
2018-07-22T15:00:42.840Z,9.87
2018-07-22T15:03:14.406Z,9.87
2018-07-22T15:05:42.752Z,10.77
2018-07-22T15:08:10.927Z,9.17
2018-07-22T15:10:38.953Z,10.20
2018-07-22T15:13:06.986Z,10.23
2018-07-22T15:15:35.461Z,8.90
2018-07-22T15:18:03.969Z,9.33
2018-07-22T15:20:32.096Z,9.70
2018-07-22T15:23:01.791Z,9.80
2018-07-22T15:25:31.955Z,9.03
2018-07-22T15:27:59.848Z,9.33
2018-07-22T15:30:27.874Z,9.00
2018-07-22T15:32:55.979Z,8.70
2018-07-22T15:35:24.956Z,8.57
2018-07-22T15:37:54.070Z,8.30
2018-07-22T15:40:23.020Z,8.53
2018-07-22T15:42:52.353Z,8.47
2018-07-22T15:45:26.416Z,8.70
2018-07-22T15:47:55.270Z,8.17
2018-07-22T15:50:23.387Z,7.87
2018-07-22T15:52:51.780Z,8.43
2018-07-22T15:55:21.173Z,8.87
2018-07-22T15:57:52.463Z,9.00
2018-07-22T16:00:20.891Z,8.60
2018-07-22T16:02:50.170Z,8.37
2018-07-22T16:05:18.459Z,8.40
2018-07-22T16:07:47.062Z,9.10
2018-07-22T16:10:15.132Z,8.40
2018-07-22T16:12:42.993Z,9.20
2018-07-22T16:15:12.905Z,8.37
2018-07-22T16:17:40.826Z,8.63
2018-07-22T16:20:08.750Z,8.53
2018-07-22T16:22:36.681Z,8.40
2018-07-22T16:25:17.835Z,8.67
2018-07-22T16:27:46.079Z,8.20
2018-07-22T16:30:14.439Z,8.40
2018-07-22T16:32:42.731Z,9.20
2018-07-22T16:35:11.038Z,8.80
2018-07-22T16:37:38.953Z,8.93
2018-07-22T16:40:06.819Z,8.10
2018-07-22T16:42:34.677Z,8.07
2018-07-22T16:45:02.489Z,7.97
2018-07-22T16:47:30.348Z,8.70
2018-07-22T16:49:58.285Z,8.20
2018-07-22T16:52:26.249Z,9.07
2018-07-22T16:54:54.264Z,8.57
2018-07-22T16:57:22.154Z,8.37
2018-07-22T16:59:50.291Z,8.60
2018-07-22T17:02:18.131Z,8.57
2018-07-22T17:04:46.109Z,8.23
2018-07-22T17:07:17.638Z,8.83
2018-07-22T17:09:47.529Z,9.27
2018-07-22T17:12:33.020Z,8.53
2018-07-22T17:15:04.922Z,8.70
2018-07-22T17:17:32.902Z,8.80
2018-07-22T17:20:00.676Z,8.70
2018-07-22T17:22:28.729Z,8.50
2018-07-22T17:24:56.862Z,8.93
2018-07-22T17:27:25.084Z,8.47
2018-07-22T17:29:53.454Z,8.30
2018-07-22T17:32:23.256Z,8.70
2018-07-22T17:34:51.405Z,8.40
2018-07-22T17:37:19.498Z,8.23
2018-07-22T17:39:47.361Z,8.00
2018-07-22T17:42:15.324Z,8.00
2018-07-22T17:44:43.485Z,8.57
2018-07-22T17:47:12.477Z,8.50
2018-07-22T17:49:40.450Z,8.93
2018-07-22T17:52:08.503Z,9.50
2018-07-22T17:54:36.509Z,9.20
2018-07-22T17:57:04.881Z,9.40
2018-07-22T17:59:32.979Z,9.20
2018-07-22T18:02:00.861Z,9.67
2018-07-22T18:04:29.198Z,9.30
2018-07-22T18:06:57.128Z,8.53
2018-07-22T18:09:25.111Z,8.93
2018-07-22T18:11:53.360Z,9.20
2018-07-22T18:14:21.377Z,9.43
2018-07-22T18:16:49.311Z,8.80
2018-07-22T18:19:22.421Z,9.20
2018-07-22T18:21:50.411Z,8.97
2018-07-22T18:24:18.688Z,9.77
2018-07-22T18:26:46.837Z,9.70
2018-07-22T18:29:27.640Z,9.57
2018-07-22T18:31:55.944Z,9.57
2018-07-22T18:34:24.154Z,9.20
2018-07-22T18:36:52.318Z,9.63
2018-07-22T18:39:20.206Z,10.13
2018-07-22T18:41:48.153Z,10.17
2018-07-22T18:44:16.190Z,10.73
2018-07-22T18:46:44.117Z,10.07
2018-07-22T18:49:22.421Z,10.27
2018-07-22T18:51:50.296Z,9.97
2018-07-22T18:54:18.469Z,11.43
2018-07-22T18:56:46.300Z,11.43
2018-07-22T18:59:25.918Z,12.53
2018-07-22T19:01:54.079Z,12.53
2018-07-22T19:04:22.104Z,12.80
2018-07-22T19:06:50.582Z,12.57
2018-07-22T19:09:18.675Z,13.00
2018-07-22T19:11:46.444Z,13.40
2018-07-22T19:14:14.541Z,13.40
2018-07-22T19:16:42.541Z,13.40
2018-07-22T19:19:10.698Z,13.40
2018-07-22T19:21:38.614Z,12.70
2018-07-22T19:24:06.444Z,12.07
2018-07-22T19:26:34.502Z,13.27
2018-07-22T19:29:02.362Z,13.10
2018-07-22T19:31:30.322Z,12.77
2018-07-22T19:33:58.322Z,10.97
2018-07-22T19:36:26.523Z,11.07
2018-07-22T19:38:54.932Z,11.23
2018-07-22T19:41:23.806Z,10.93
2018-07-22T19:43:52.454Z,12.07
2018-07-22T19:46:20.806Z,12.40
2018-07-22T19:48:48.658Z,12.70
2018-07-22T19:51:24.239Z,13.00
2018-07-22T19:53:52.969Z,12.53
2018-07-22T19:56:21.984Z,12.83
2018-07-22T19:59:07.551Z,12.83
2018-07-22T20:01:39.345Z,12.77
2018-07-22T20:04:08.038Z,13.50
2018-07-22T20:06:35.909Z,13.93
2018-07-22T20:09:05.399Z,12.97
2018-07-22T20:11:33.430Z,13.07
2018-07-22T20:14:01.395Z,13.00
2018-07-22T20:16:29.337Z,13.00
2018-07-22T20:18:57.372Z,13.47
2018-07-22T20:22:28.549Z,14.00
2018-07-22T20:24:56.677Z,12.53
2018-07-22T20:27:24.577Z,15.00
2018-07-22T20:29:52.946Z,14.10
2018-07-22T20:32:21.309Z,13.90
2018-07-22T20:34:49.258Z,12.73
2018-07-22T20:37:17.188Z,12.20
2018-07-22T20:39:44.937Z,13.03
2018-07-22T20:42:12.770Z,12.57
2018-07-22T20:44:40.657Z,13.07
2018-07-22T20:47:08.599Z,12.80
2018-07-22T20:49:36.469Z,14.17
2018-07-22T20:52:04.326Z,13.30
2018-07-22T20:54:32.252Z,12.70
2018-07-22T20:57:00.170Z,13.33
2018-07-22T20:59:28.164Z,13.83
2018-07-22T21:01:56.171Z,14.00
2018-07-22T21:04:24.415Z,13.37
2018-07-22T21:06:53.082Z,13.80
2018-07-22T21:09:21.453Z,14.27
2018-07-22T21:13:00.937Z,14.93
2018-07-22T21:15:28.870Z,14.60
2018-07-22T21:18:03.150Z,14.63
2018-07-22T21:20:30.740Z,14.37
2018-07-22T21:22:58.686Z,14.20
2018-07-22T21:25:26.500Z,14.23
2018-07-22T21:27:54.976Z,15.90
2018-07-22T21:30:22.866Z,17.53
2018-07-22T21:32:50.718Z,16.67
2018-07-22T21:35:18.616Z,16.10
2018-07-22T21:37:46.521Z,16.50
2018-07-22T21:40:14.513Z,17.27
2018-07-22T21:42:42.444Z,18.50
2018-07-22T21:45:10.220Z,16.03
2018-07-22T21:47:38.038Z,19.93
2018-07-22T21:50:06.625Z,21.53
2018-07-22T21:52:35.585Z,21.60
2018-07-22T21:55:03.693Z,23.00
2018-07-22T21:57:31.700Z,20.07
2018-07-22T21:59:59.621Z,19.30
2018-07-22T22:02:31.758Z,19.03
2018-07-22T22:05:00.809Z,18.53
2018-07-22T22:07:28.825Z,20.50
2018-07-22T22:09:56.831Z,22.33
2018-07-22T22:12:24.813Z,19.30
2018-07-22T22:14:52.837Z,19.63
2018-07-22T22:17:20.804Z,19.97
2018-07-22T22:19:48.738Z,20.77
2018-07-22T22:22:16.462Z,19.67
2018-07-22T22:24:44.664Z,20.90
2018-07-22T22:27:12.525Z,21.23
2018-07-22T22:29:41.009Z,19.37
2018-07-22T22:32:12.390Z,20.80
2018-07-22T22:34:40.284Z,20.00
2018-07-22T22:37:08.284Z,20.57
2018-07-22T22:39:36.248Z,20.50
2018-07-22T22:42:04.126Z,19.70
2018-07-22T22:44:31.935Z,21.33
2018-07-22T22:47:01.778Z,25.70
2018-07-22T22:49:29.706Z,20.00
2018-07-22T22:51:57.733Z,19.33
2018-07-22T22:54:25.699Z,19.63
2018-07-22T22:56:53.599Z,18.40
2018-07-22T22:59:23.093Z,19.33
2018-07-22T23:01:51.304Z,20.23
2018-07-22T23:04:19.233Z,20.10
2018-07-22T23:06:47.105Z,19.67
2018-07-22T23:09:15.829Z,19.17
2018-07-22T23:11:43.910Z,18.03
2018-07-22T23:14:11.956Z,20.97
2018-07-22T23:16:40.198Z,18.73
2018-07-22T23:19:08.187Z,18.40
2018-07-22T23:21:36.185Z,18.73
2018-07-22T23:24:04.219Z,19.07
2018-07-22T23:26:32.632Z,19.83
2018-07-22T23:29:00.497Z,21.50
2018-07-22T23:31:28.386Z,19.50
2018-07-22T23:33:56.597Z,18.03
2018-07-22T23:36:24.602Z,17.73
2018-07-22T23:38:52.614Z,19.63
2018-07-22T23:41:21.039Z,18.07
2018-07-22T23:43:48.852Z,20.23
2018-07-22T23:46:16.682Z,19.77
2018-07-22T23:48:44.506Z,19.07
2018-07-22T23:51:12.376Z,19.07
2018-07-22T23:53:40.188Z,18.40
2018-07-22T23:56:08.148Z,19.80
2018-07-22T23:58:39.218Z,19.23
